createdAt,value
2022-08-19T00:01:29.115Z,17.03
2022-08-19T00:04:35.835Z,17.02
2022-08-19T00:07:37.393Z,17.01
2022-08-19T00:10:38.729Z,17.01
2022-08-19T00:13:40.165Z,17.01
2022-08-19T00:16:42.202Z,17.02
2022-08-19T00:19:43.555Z,17.03
2022-08-19T00:22:45.348Z,17.03
2022-08-19T00:25:48.781Z,17.05
2022-08-19T00:28:50.263Z,17.05
2022-08-19T00:31:54.435Z,17.06
2022-08-19T00:34:56.116Z,17.08
2022-08-19T00:37:57.480Z,17.09
2022-08-19T00:40:59.666Z,17.10
2022-08-19T00:44:08.916Z,17.07
2022-08-19T00:47:14.151Z,17.02
2022-08-19T00:50:16.038Z,16.99
2022-08-19T00:53:18.532Z,17.00
2022-08-19T00:56:19.943Z,16.99
2022-08-19T00:59:56.372Z,16.98
2022-08-19T01:02:42.654Z,16.97
2022-08-19T01:05:44.891Z,16.99
2022-08-19T01:08:46.242Z,16.97
2022-08-19T01:11:51.658Z,16.94
2022-08-19T01:14:53.099Z,16.97
2022-08-19T01:17:54.480Z,16.97
2022-08-19T01:20:56.894Z,16.98
2022-08-19T01:23:58.232Z,16.88
2022-08-19T01:26:59.587Z,16.91
2022-08-19T01:30:00.924Z,16.94
2022-08-19T01:33:02.495Z,16.94
2022-08-19T01:36:11.664Z,16.92
2022-08-19T01:39:14.147Z,16.92
2022-08-19T01:42:15.675Z,16.95
2022-08-19T01:45:17.449Z,16.95
2022-08-19T01:48:18.802Z,16.95
2022-08-19T01:51:20.174Z,16.97
2022-08-19T01:54:23.152Z,16.96
2022-08-19T01:57:29.377Z,16.96
2022-08-19T02:00:30.728Z,16.96
2022-08-19T02:03:32.101Z,16.97
2022-08-19T02:06:34.086Z,16.98
2022-08-19T02:09:35.439Z,16.99
2022-08-19T02:12:37.019Z,16.97
2022-08-19T02:15:38.970Z,16.97
2022-08-19T02:18:40.332Z,16.94
2022-08-19T02:21:41.704Z,16.93
2022-08-19T02:24:44.162Z,16.94
2022-08-19T02:27:45.542Z,16.92
2022-08-19T02:30:47.092Z,16.92
2022-08-19T02:33:48.503Z,16.91
2022-08-19T02:36:51.626Z,16.90
2022-08-19T02:39:53.566Z,16.91
2022-08-19T02:42:55.091Z,16.93
2022-08-19T02:45:56.488Z,16.92
2022-08-19T02:48:58.643Z,16.90
2022-08-19T02:52:00.023Z,16.93
2022-08-19T02:55:02.007Z,16.94
2022-08-19T02:58:03.436Z,16.88
2022-08-19T03:01:09.644Z,16.90
2022-08-19T03:04:11.632Z,16.87
2022-08-19T03:07:16.094Z,16.87
2022-08-19T03:10:17.453Z,16.90
2022-08-19T03:13:18.891Z,16.93
2022-08-19T03:16:20.298Z,16.93
2022-08-19T03:19:24.589Z,16.90
2022-08-19T03:22:26.383Z,16.89
2022-08-19T03:25:27.703Z,16.94
2022-08-19T03:28:29.374Z,16.96
2022-08-19T03:31:45.626Z,16.97
2022-08-19T03:34:53.800Z,16.99
2022-08-19T03:37:55.183Z,16.98
2022-08-19T03:40:56.526Z,16.98
2022-08-19T03:43:58.286Z,16.97
2022-08-19T03:46:59.807Z,16.96
2022-08-19T03:50:01.169Z,16.96
2022-08-19T03:53:02.522Z,16.95
2022-08-19T03:56:03.923Z,16.93
2022-08-19T03:59:06.182Z,16.93
2022-08-19T04:02:10.228Z,16.91
2022-08-19T04:05:11.784Z,16.93
2022-08-19T04:08:14.040Z,16.93
2022-08-19T04:11:17.953Z,16.91
2022-08-19T04:14:19.679Z,16.87
2022-08-19T04:17:21.036Z,16.85
2022-08-19T04:20:22.478Z,16.89
2022-08-19T04:23:23.965Z,16.90
2022-08-19T04:26:26.170Z,16.91
2022-08-19T04:29:27.977Z,16.89
2022-08-19T04:32:29.579Z,16.89
2022-08-19T04:35:35.607Z,16.87
2022-08-19T04:38:36.995Z,16.85
2022-08-19T04:41:57.233Z,16.86
2022-08-19T04:44:59.606Z,16.86
2022-08-19T04:48:26.280Z,16.89
2022-08-19T04:51:24.216Z,16.91
2022-08-19T04:54:38.346Z,16.95
2022-08-19T04:57:41.314Z,16.96
2022-08-19T05:00:42.844Z,16.97
2022-08-19T05:03:44.277Z,16.99
2022-08-19T05:06:45.882Z,17.00
2022-08-19T05:09:57.725Z,16.97
2022-08-19T05:13:00.357Z,16.93
2022-08-19T05:16:01.728Z,16.91
2022-08-19T05:19:21.937Z,16.97
2022-08-19T05:22:38.278Z,16.96
2022-08-19T05:25:40.048Z,16.97
2022-08-19T05:28:42.979Z,16.99
2022-08-19T05:31:44.376Z,17.01
2022-08-19T05:34:45.727Z,17.05
2022-08-19T05:37:47.113Z,17.08
2022-08-19T05:40:50.236Z,17.10
2022-08-19T05:43:51.663Z,17.12
2022-08-19T05:46:53.928Z,17.10
2022-08-19T05:49:55.598Z,17.09
2022-08-19T05:52:57.141Z,17.14
2022-08-19T05:55:58.695Z,17.18
2022-08-19T05:59:00.291Z,17.16
2022-08-19T06:02:01.679Z,17.19
2022-08-19T06:05:03.821Z,17.19
2022-08-19T06:08:06.363Z,17.14
2022-08-19T06:11:33.539Z,17.19
2022-08-19T06:14:35.595Z,17.24
2022-08-19T06:17:42.652Z,17.25
2022-08-19T06:20:55.431Z,17.29
2022-08-19T06:23:57.284Z,17.24
2022-08-19T06:27:01.397Z,17.26
2022-08-19T06:30:04.197Z,17.26
2022-08-19T06:33:05.555Z,17.31
2022-08-19T06:36:06.954Z,17.29
2022-08-19T06:39:09.351Z,17.33
2022-08-19T06:42:12.705Z,17.36
2022-08-19T06:45:14.168Z,17.35
2022-08-19T06:48:15.705Z,17.43
2022-08-19T06:51:20.083Z,17.46
2022-08-19T06:54:21.489Z,17.51
2022-08-19T06:57:23.032Z,17.47
2022-08-19T07:00:24.430Z,17.42
2022-08-19T07:03:25.896Z,17.42
2022-08-19T07:06:44.437Z,17.46
2022-08-19T07:09:46.021Z,17.51
2022-08-19T07:12:59.961Z,17.50
2022-08-19T07:16:05.590Z,17.48
2022-08-19T07:19:16.016Z,17.53
2022-08-19T07:22:18.812Z,17.57
2022-08-19T07:25:21.784Z,17.62
2022-08-19T07:28:33.906Z,17.67
2022-08-19T07:31:38.881Z,17.70
2022-08-19T07:34:40.256Z,17.73
2022-08-19T07:37:45.155Z,17.77
2022-08-19T07:40:47.011Z,17.79
2022-08-19T07:43:48.499Z,17.77
2022-08-19T07:46:53.184Z,17.79
2022-08-19T07:49:54.926Z,17.75
2022-08-19T07:52:56.379Z,17.79
2022-08-19T07:56:04.345Z,17.82
2022-08-19T07:59:06.011Z,17.85
2022-08-19T08:02:07.394Z,17.92
2022-08-19T08:05:28.031Z,17.93
2022-08-19T08:08:48.554Z,17.99
2022-08-19T08:12:05.108Z,17.99
2022-08-19T08:15:12.458Z,18.01
2022-08-19T08:18:14.525Z,18.12
2022-08-19T08:21:15.963Z,18.11
2022-08-19T08:24:17.365Z,18.07
2022-08-19T08:27:20.893Z,18.08
2022-08-19T08:30:31.338Z,18.27
2022-08-19T08:33:35.257Z,18.29
2022-08-19T08:36:38.080Z,18.35
2022-08-19T08:39:39.465Z,18.38
2022-08-19T08:42:41.835Z,18.35
2022-08-19T08:45:44.651Z,18.42
2022-08-19T08:48:47.840Z,18.43
2022-08-19T08:52:03.190Z,18.51
2022-08-19T08:55:10.123Z,18.60
2022-08-19T08:58:17.523Z,18.73
2022-08-19T09:01:20.200Z,18.87
2022-08-19T09:04:21.575Z,18.89
2022-08-19T09:07:34.674Z,18.97
2022-08-19T09:10:44.968Z,19.08
2022-08-19T09:13:50.082Z,19.17
2022-08-19T09:16:52.511Z,19.09
2022-08-19T09:19:55.192Z,19.31
2022-08-19T09:22:56.634Z,19.44
2022-08-19T09:25:58.507Z,19.81
2022-08-19T09:29:01.137Z,19.92
2022-08-19T09:32:02.531Z,19.89
2022-08-19T09:35:03.973Z,19.96
2022-08-19T09:38:10.246Z,20.22
2022-08-19T09:41:15.627Z,20.00
2022-08-19T09:44:16.967Z,19.96
2022-08-19T09:47:20.077Z,20.05
2022-08-19T09:50:21.530Z,20.26
2022-08-19T09:53:23.496Z,20.10
2022-08-19T09:56:27.033Z,20.25
2022-08-19T09:59:28.449Z,20.13
2022-08-19T10:02:34.766Z,20.05
2022-08-19T10:05:55.235Z,20.06
2022-08-19T10:08:56.912Z,20.11
2022-08-19T10:12:01.464Z,20.04
2022-08-19T10:15:04.432Z,20.06
2022-08-19T10:18:06.106Z,20.14
2022-08-19T10:21:09.474Z,20.08
2022-08-19T10:24:13.059Z,20.18
2022-08-19T10:27:15.092Z,20.39
2022-08-19T10:30:17.510Z,20.54
2022-08-19T10:33:38.263Z,20.54
2022-08-19T10:36:43.297Z,20.60
2022-08-19T10:39:58.064Z,20.97
2022-08-19T10:42:59.536Z,21.22
2022-08-19T10:46:00.940Z,21.04
2022-08-19T10:49:02.697Z,21.19
2022-08-19T10:52:27.323Z,20.98
2022-08-19T10:55:52.849Z,20.97
2022-08-19T10:58:54.503Z,20.98
2022-08-19T11:01:59.729Z,20.70
2022-08-19T11:05:09.090Z,20.72
2022-08-19T11:08:23.250Z,20.80
2022-08-19T11:11:25.323Z,20.75
2022-08-19T11:14:26.675Z,21.55
2022-08-19T11:17:32.590Z,21.84
2022-08-19T11:20:34.402Z,22.47
2022-08-19T11:23:37.005Z,23.48
2022-08-19T11:26:38.541Z,23.00
2022-08-19T11:29:40.040Z,22.34
2022-08-19T11:32:44.649Z,22.29
2022-08-19T11:35:50.380Z,22.04
2022-08-19T11:38:51.747Z,22.26
2022-08-19T11:41:53.119Z,22.75
2022-08-19T11:44:54.647Z,22.15
2022-08-19T11:47:56.255Z,22.28
2022-08-19T11:50:57.772Z,22.31
2022-08-19T11:53:59.251Z,22.10
2022-08-19T11:57:02.045Z,21.88
2022-08-19T12:00:04.902Z,22.07
2022-08-19T12:03:06.250Z,22.09
2022-08-19T12:06:08.614Z,22.30
2022-08-19T12:09:10.454Z,22.61
2022-08-19T12:12:11.953Z,22.43
2022-08-19T12:15:13.676Z,22.83
2022-08-19T12:18:15.171Z,22.47
2022-08-19T12:21:16.977Z,22.35
2022-08-19T12:24:23.967Z,22.53
2022-08-19T12:27:39.967Z,22.85
2022-08-19T12:30:42.065Z,22.65
2022-08-19T12:33:43.428Z,22.87
2022-08-19T12:36:44.800Z,23.11
2022-08-19T12:39:46.182Z,22.83
2022-08-19T12:42:47.898Z,22.92
2022-08-19T12:45:49.288Z,22.70
2022-08-19T12:48:55.328Z,22.37
2022-08-19T12:51:59.036Z,22.36
2022-08-19T12:55:00.554Z,22.44
2022-08-19T12:58:04.803Z,22.53
2022-08-19T13:01:10.198Z,22.41
2022-08-19T13:04:11.687Z,22.33
2022-08-19T13:07:13.111Z,22.50
2022-08-19T13:10:18.058Z,22.54
2022-08-19T13:13:19.399Z,22.96
2022-08-19T13:16:21.290Z,23.70
2022-08-19T13:19:24.417Z,23.93
2022-08-19T13:22:26.392Z,24.54
2022-08-19T13:25:27.842Z,24.39
2022-08-19T13:28:49.256Z,24.39
2022-08-19T13:32:09.360Z,24.26
2022-08-19T13:35:16.825Z,24.17
2022-08-19T13:38:19.445Z,24.14
2022-08-19T13:41:20.927Z,24.61
2022-08-19T13:44:22.334Z,24.61
2022-08-19T13:47:23.709Z,24.02
2022-08-19T13:50:27.566Z,24.73
2022-08-19T13:53:31.985Z,24.94
2022-08-19T13:56:33.333Z,25.01
2022-08-19T13:59:34.669Z,24.89
2022-08-19T14:02:36.116Z,24.15
2022-08-19T14:05:37.452Z,23.73
2022-08-19T14:08:44.234Z,23.53
2022-08-19T14:11:47.575Z,23.22
2022-08-19T14:14:48.924Z,23.26
2022-08-19T14:17:50.380Z,23.15
2022-08-19T14:20:52.104Z,23.02
2022-08-19T14:23:53.497Z,22.86
2022-08-19T14:26:54.864Z,22.83
2022-08-19T14:29:56.638Z,22.78
2022-08-19T14:32:59.192Z,22.73
2022-08-19T14:36:01.382Z,22.61
2022-08-19T14:39:02.753Z,22.54
2022-08-19T14:42:11.221Z,22.56
2022-08-19T14:45:12.971Z,22.58
2022-08-19T14:48:19.060Z,22.64
2022-08-19T14:51:21.309Z,22.81
2022-08-19T14:54:25.398Z,22.85
2022-08-19T14:57:31.708Z,23.01
2022-08-19T15:00:33.062Z,23.26
2022-08-19T15:03:38.287Z,23.64
2022-08-19T15:06:39.730Z,23.63
2022-08-19T15:09:42.328Z,23.55
2022-08-19T15:12:43.720Z,23.69
2022-08-19T15:15:46.259Z,23.89
2022-08-19T15:18:47.880Z,23.94
2022-08-19T15:21:49.898Z,23.94
2022-08-19T15:24:51.276Z,23.93
2022-08-19T15:27:54.091Z,24.09
2022-08-19T15:30:55.748Z,23.89
2022-08-19T15:33:58.802Z,23.99
2022-08-19T15:37:00.452Z,23.93
2022-08-19T15:40:14.296Z,23.90
2022-08-19T15:43:16.151Z,23.64
2022-08-19T15:46:18.537Z,23.60
2022-08-19T15:49:20.264Z,23.54
2022-08-19T15:52:21.612Z,23.33
2022-08-19T15:55:32.828Z,23.10
2022-08-19T15:58:54.493Z,22.88
2022-08-19T16:02:14.861Z,22.79
2022-08-19T16:05:36.143Z,22.64
2022-08-19T16:08:47.938Z,22.50
2022-08-19T16:11:56.481Z,22.30
2022-08-19T16:14:58.505Z,22.28
2022-08-19T16:18:02.294Z,22.18
2022-08-19T16:21:04.604Z,22.19
2022-08-19T16:24:06.713Z,22.16
2022-08-19T16:27:08.069Z,22.10
2022-08-19T16:30:09.603Z,22.08
2022-08-19T16:33:10.999Z,22.01
2022-08-19T16:36:12.379Z,21.84
2022-08-19T16:39:14.583Z,21.79
2022-08-19T16:42:15.934Z,21.83
2022-08-19T16:45:19.467Z,21.87
2022-08-19T16:48:21.742Z,21.92
2022-08-19T16:51:23.120Z,21.92
2022-08-19T16:54:24.513Z,21.81
2022-08-19T16:57:25.910Z,21.75
2022-08-19T17:00:27.248Z,21.63
2022-08-19T17:03:36.635Z,21.54
2022-08-19T17:06:39.541Z,21.52
2022-08-19T17:09:40.991Z,21.48
2022-08-19T17:12:42.638Z,21.36
2022-08-19T17:15:43.973Z,21.33
2022-08-19T17:18:45.382Z,21.32
2022-08-19T17:21:47.042Z,21.30
2022-08-19T17:24:48.392Z,21.39
2022-08-19T17:27:51.493Z,21.51
2022-08-19T17:30:53.179Z,21.63
2022-08-19T17:33:55.014Z,21.88
2022-08-19T17:36:56.915Z,21.97
2022-08-19T17:39:58.420Z,22.04
2022-08-19T17:43:00.127Z,22.03
2022-08-19T17:46:03.185Z,22.02
2022-08-19T17:49:04.622Z,22.01
2022-08-19T17:52:09.827Z,21.97
2022-08-19T17:55:11.499Z,21.92
2022-08-19T17:58:12.851Z,21.88
2022-08-19T18:01:15.241Z,21.84
2022-08-19T18:04:19.670Z,21.78
2022-08-19T18:07:21.618Z,21.74
2022-08-19T18:10:23.826Z,21.60
2022-08-19T18:13:36.200Z,21.45
2022-08-19T18:16:39.284Z,21.37
2022-08-19T18:19:42.970Z,21.19
2022-08-19T18:22:45.702Z,21.08
2022-08-19T18:25:47.058Z,20.94
2022-08-19T18:28:50.047Z,20.82
2022-08-19T18:31:51.535Z,20.65
2022-08-19T18:34:53.169Z,20.45
2022-08-19T18:37:55.779Z,20.25
2022-08-19T18:41:15.890Z,20.16
2022-08-19T18:44:35.864Z,20.00
2022-08-19T18:47:56.079Z,19.81
2022-08-19T18:50:57.947Z,19.70
2022-08-19T18:53:59.551Z,19.62
2022-08-19T18:57:00.928Z,19.44
2022-08-19T19:00:05.183Z,19.38
2022-08-19T19:03:06.567Z,19.34
2022-08-19T19:06:07.972Z,19.29
2022-08-19T19:09:10.039Z,19.23
2022-08-19T19:12:11.578Z,19.18
2022-08-19T19:15:13.075Z,19.12
2022-08-19T19:18:14.412Z,18.99
2022-08-19T19:21:15.773Z,18.93
2022-08-19T19:24:17.862Z,18.79
2022-08-19T19:27:20.542Z,18.64
2022-08-19T19:30:25.826Z,18.51
2022-08-19T19:33:27.426Z,18.48
2022-08-19T19:36:28.788Z,18.43
2022-08-19T19:39:45.202Z,18.37
2022-08-19T19:42:48.076Z,18.37
2022-08-19T19:45:49.405Z,18.34
2022-08-19T19:48:50.753Z,18.31
2022-08-19T19:51:52.117Z,18.27
2022-08-19T19:54:56.636Z,18.25
2022-08-19T19:57:57.987Z,18.23
2022-08-19T20:01:00.754Z,18.19
2022-08-19T20:04:05.222Z,18.16
2022-08-19T20:07:06.580Z,18.17
2022-08-19T20:10:08.965Z,18.20
2022-08-19T20:13:11.189Z,18.20
2022-08-19T20:16:13.020Z,18.22
2022-08-19T20:19:15.651Z,18.26
2022-08-19T20:22:17.017Z,18.17
2022-08-19T20:25:18.584Z,18.10
2022-08-19T20:28:23.923Z,18.05
2022-08-19T20:31:27.206Z,17.94
2022-08-19T20:34:32.056Z,17.96
2022-08-19T20:37:33.474Z,17.83
2022-08-19T20:40:35.806Z,17.82
2022-08-19T20:43:37.813Z,17.82
2022-08-19T20:46:39.815Z,17.79
2022-08-19T20:49:41.176Z,17.78
2022-08-19T20:52:42.555Z,17.73
2022-08-19T20:55:53.823Z,17.74
2022-08-19T20:59:04.356Z,17.71
2022-08-19T21:02:05.795Z,17.59
2022-08-19T21:05:07.494Z,17.48
2022-08-19T21:08:09.173Z,17.39
2022-08-19T21:11:10.589Z,17.40
2022-08-19T21:14:12.843Z,17.36
2022-08-19T21:17:14.208Z,17.30
2022-08-19T21:20:15.533Z,17.26
2022-08-19T21:23:18.427Z,17.25
2022-08-19T21:26:19.859Z,17.14
2022-08-19T21:29:21.208Z,17.11
2022-08-19T21:32:23.600Z,17.07
2022-08-19T21:35:24.981Z,17.02
2022-08-19T21:38:26.382Z,16.98
2022-08-19T21:41:27.815Z,16.96
2022-08-19T21:44:29.158Z,16.88
2022-08-19T21:47:30.500Z,16.81
2022-08-19T21:50:32.598Z,16.79
2022-08-19T21:53:34.737Z,16.66
2022-08-19T21:56:36.276Z,16.55
2022-08-19T21:59:39.723Z,16.55
2022-08-19T22:02:44.932Z,16.52
2022-08-19T22:05:46.269Z,16.56
2022-08-19T22:08:47.757Z,16.47
2022-08-19T22:11:49.460Z,16.45
2022-08-19T22:14:51.611Z,16.38
2022-08-19T22:17:53.200Z,16.27
2022-08-19T22:20:54.701Z,16.26
2022-08-19T22:23:56.064Z,16.30
2022-08-19T22:26:57.588Z,16.33
2022-08-19T22:29:58.942Z,16.28
2022-08-19T22:33:01.212Z,16.22
2022-08-19T22:36:04.413Z,16.21
2022-08-19T22:39:05.779Z,16.20
2022-08-19T22:42:07.428Z,16.24
2022-08-19T22:45:09.348Z,16.25
2022-08-19T22:48:11.464Z,16.24
2022-08-19T22:51:31.549Z,16.17
2022-08-19T22:54:32.893Z,16.05
2022-08-19T22:57:34.327Z,15.99
2022-08-19T23:00:35.673Z,15.97
2022-08-19T23:03:37.107Z,15.91
2022-08-19T23:06:41.869Z,15.90
2022-08-19T23:09:43.736Z,15.81
2022-08-19T23:12:46.622Z,15.83
2022-08-19T23:15:48.012Z,15.85
2022-08-19T23:18:49.362Z,15.86
2022-08-19T23:21:57.627Z,15.80
2022-08-19T23:25:05.617Z,15.76
2022-08-19T23:28:30.313Z,15.66
2022-08-19T23:31:31.664Z,15.67
2022-08-19T23:34:33.011Z,15.63
2022-08-19T23:37:34.367Z,15.57
2022-08-19T23:40:36.053Z,15.51
2022-08-19T23:43:38.792Z,15.47
2022-08-19T23:46:54.293Z,15.41
2022-08-19T23:49:56.955Z,15.36
2022-08-19T23:52:58.670Z,15.36
2022-08-19T23:56:00.026Z,15.37
2022-08-19T23:59:01.387Z,15.41
